Time;durP1;ratioP1;P1;durP2;ratioP2;P2;SDS_P1;SDS_P2;PMS_P1;PMS_P2;Temp;Humidity;BMP_temperature;BMP_pressure;BME280_temperature;BME280_humidity;BME280_pressure;Samples;Min_cycle;Max_cycle;Signal;HPM_P1;HPM_P2
2021/07/27 00:01:38;;;;;;;6.00;2.72;;;18.30;86.90;;;;;;6218272;23;20224;-76
2021/07/27 00:04:05;;;;;;;5.45;2.78;;;18.30;87.00;;;;;;6223527;23;20016;-76
2021/07/27 00:06:32;;;;;;;5.10;2.20;;;18.30;87.10;;;;;;6222017;23;20190;-76
2021/07/27 00:09:02;;;;;;;6.10;2.47;;;18.30;87.10;;;;;;6223521;23;20021;-76
2021/07/27 00:11:30;;;;;;;5.35;2.53;;;18.20;87.00;;;;;;6222993;23;20017;-76
2021/07/27 00:13:57;;;;;;;7.32;2.80;;;18.20;87.20;;;;;;6221265;23;20028;-76
2021/07/27 00:16:26;;;;;;;6.28;2.25;;;18.20;87.40;;;;;;6222202;23;20024;-76
2021/07/27 00:18:53;;;;;;;6.38;2.63;;;18.20;87.50;;;;;;6223324;23;20035;-76
2021/07/27 00:21:21;;;;;;;5.90;2.38;;;18.20;87.40;;;;;;6222606;23;20220;-76
2021/07/27 00:23:48;;;;;;;7.38;2.85;;;18.10;87.50;;;;;;6222894;23;20008;-76
2021/07/27 00:26:15;;;;;;;6.55;2.33;;;18.10;88.00;;;;;;6223379;23;20024;-76
2021/07/27 00:28:44;;;;;;;5.53;2.55;;;18.10;88.20;;;;;;6245794;23;20028;-76
2021/07/27 00:31:18;;;;;;;6.78;2.25;;;18.00;87.90;;;;;;6223233;23;20016;-76
2021/07/27 00:33:46;;;;;;;5.60;2.67;;;18.00;87.90;;;;;;6223507;23;20024;-76
2021/07/27 00:36:13;;;;;;;5.63;2.58;;;17.90;87.70;;;;;;6223195;23;20031;-76
2021/07/27 00:38:42;;;;;;;4.57;2.38;;;17.90;87.40;;;;;;6222991;23;20021;-76
2021/07/27 00:41:09;;;;;;;6.80;2.45;;;17.80;87.60;;;;;;6220368;23;20043;-76
2021/07/27 00:43:37;;;;;;;9.60;2.75;;;17.80;87.70;;;;;;6221803;23;20024;-76
2021/07/27 00:46:06;;;;;;;5.68;2.60;;;17.70;87.60;;;;;;6221646;23;20032;-76
2021/07/27 00:48:33;;;;;;;6.43;2.25;;;17.70;87.60;;;;;;6221484;23;20104;-76
2021/07/27 00:51:00;;;;;;;4.57;2.13;;;17.70;87.60;;;;;;6221663;23;20016;-76
2021/07/27 00:53:29;;;;;;;4.82;2.25;;;17.60;87.60;;;;;;6220284;23;20069;-76
2021/07/27 00:55:56;;;;;;;7.95;2.70;;;17.60;87.70;;;;;;6221717;23;20016;-76
2021/07/27 00:58:23;;;;;;;5.55;2.55;;;17.60;87.80;;;;;;6220934;23;20024;-76
2021/07/27 01:00:51;;;;;;;4.55;2.35;;;17.60;87.70;;;;;;6212147;23;20020;-76
2021/07/27 01:03:20;;;;;;;4.90;2.30;;;17.40;87.60;;;;;;6221688;23;20305;-76
2021/07/27 01:05:47;;;;;;;6.00;2.67;;;17.40;88.10;;;;;;6221733;23;20024;-76
2021/07/27 01:08:14;;;;;;;5.25;2.78;;;17.40;88.20;;;;;;6218194;23;20027;-76
2021/07/27 01:10:42;;;;;;;8.00;2.45;;;17.40;88.10;;;;;;6222829;23;20301;-76
2021/07/27 01:13:09;;;;;;;4.60;2.40;;;17.40;88.00;;;;;;6221521;23;20012;-76
2021/07/27 01:15:36;;;;;;;5.30;2.85;;;17.30;88.30;;;;;;6223214;23;20017;-76
2021/07/27 01:18:09;;;;;;;6.60;2.22;;;17.30;88.50;;;;;;6223501;23;20036;-76
2021/07/27 01:20:54;;;;;;;5.63;2.70;;;17.30;88.50;;;;;;6247388;23;20074;-76
2021/07/27 01:37:36;;;;;;;6.13;2.63;;;17.10;88.40;;;;;;6220742;23;20021;-76
2021/07/27 01:40:07;;;;;;;5.80;2.40;;;17.00;88.50;;;;;;6219868;23;20017;-76
2021/07/27 01:42:39;;;;;;;5.00;2.53;;;17.10;88.50;;;;;;6221404;23;20051;-76
2021/07/27 01:45:24;;;;;;;4.28;2.17;;;17.10;88.40;;;;;;6220956;23;20023;-76
2021/07/27 01:47:51;;;;;;;6.18;3.00;;;17.10;88.50;;;;;;6221371;23;20040;-76
2021/07/27 01:50:18;;;;;;;5.97;1.95;;;17.00;88.80;;;;;;6221303;23;20020;-76
2021/07/27 01:52:49;;;;;;;7.32;2.50;;;17.00;88.70;;;;;;6221048;23;20068;-75
2021/07/27 01:55:20;;;;;;;5.20;2.40;;;17.00;89.30;;;;;;6221922;23;20024;-75
2021/07/27 01:57:47;;;;;;;6.25;2.50;;;16.90;89.00;;;;;;6220560;23;20295;-76
2021/07/27 02:00:15;;;;;;;8.75;2.88;;;16.90;89.10;;;;;;6216846;23;20043;-75
2021/07/27 02:02:42;;;;;;;6.57;2.03;;;17.00;89.20;;;;;;6221595;23;20320;-75
2021/07/27 02:05:11;;;;;;;4.82;2.45;;;17.00;89.00;;;;;;6222836;23;20055;-75
2021/07/27 02:07:39;;;;;;;6.10;2.65;;;17.00;89.10;;;;;;6220563;23;20204;-75
2021/07/27 02:10:11;;;;;;;5.75;2.83;;;16.90;89.30;;;;;;6221355;23;20013;-75
2021/07/27 02:12:49;;;;;;;9.73;2.83;;;16.90;89.40;;;;;;6224233;23;20316;-75
2021/07/27 02:15:19;;;;;;;8.68;2.53;;;16.90;89.30;;;;;;6220704;23;20083;-74
2021/07/27 02:17:46;;;;;;;5.97;2.90;;;16.90;89.30;;;;;;6220263;23;20036;-75
2021/07/27 02:20:14;;;;;;;4.75;2.13;;;16.80;89.40;;;;;;6220085;23;20348;-75
2021/07/27 02:22:41;;;;;;;7.90;2.90;;;16.90;89.20;;;;;;6214715;23;20020;-75
2021/07/27 02:25:10;;;;;;;6.18;2.83;;;16.80;89.10;;;;;;6219655;23;20024;-75
2021/07/27 02:27:38;;;;;;;5.97;2.85;;;16.80;89.30;;;;;;6218910;23;20025;-75
2021/07/27 02:30:08;;;;;;;6.57;2.58;;;16.80;89.10;;;;;;6217669;23;20197;-75
2021/07/27 02:32:35;;;;;;;;;;;16.80;88.90;;;;;;6218188;23;20016;-76
2021/07/27 02:35:03;;;;;;;3.47;1.77;;;16.70;88.70;;;;;;6218476;23;19920;-76
2021/07/27 02:37:35;;;;;;;8.30;2.35;;;16.70;88.70;;;;;;6217938;23;20029;-76
2021/07/27 02:40:02;;;;;;;3.35;1.80;;;16.60;88.60;;;;;;6218225;23;20044;-75
2021/07/27 02:42:36;;;;;;;7.97;2.30;;;16.60;88.50;;;;;;6217638;23;20039;-75
2021/07/27 02:45:06;;;;;;;5.50;2.63;;;16.60;88.50;;;;;;6218861;23;20236;-76
2021/07/27 02:47:34;;;;;;;6.90;2.50;;;16.60;88.60;;;;;;6219399;23;20035;-75
2021/07/27 02:50:01;;;;;;;4.70;2.10;;;16.60;88.40;;;;;;6219335;23;20304;-76
2021/07/27 02:52:32;;;;;;;4.65;2.13;;;16.70;88.30;;;;;;6219128;23;20076;-76
2021/07/27 02:55:00;;;;;;;5.07;2.30;;;16.70;88.10;;;;;;6217631;23;20028;-76
2021/07/27 02:57:27;;;;;;;5.47;2.28;;;16.70;87.90;;;;;;6218821;23;20022;-75
2021/07/27 02:59:55;;;;;;;5.10;2.45;;;16.60;88.30;;;;;;6221246;23;20040;-75
2021/07/27 03:02:24;;;;;;;3.67;1.92;;;16.60;88.40;;;;;;6212448;23;20085;-75
2021/07/27 03:04:51;;;;;;;6.78;2.60;;;16.60;88.20;;;;;;6218259;23;20024;-75
2021/07/27 03:07:20;;;;;;;4.55;2.25;;;16.70;87.80;;;;;;6220160;23;20016;-75
2021/07/27 03:12:31;;;;;;;6.05;2.20;;;16.60;88.00;;;;;;6219878;23;20024;-75
2021/07/27 03:15:00;;;;;;;5.30;2.35;;;16.60;87.90;;;;;;6222655;23;20039;-75
2021/07/27 03:17:32;;;;;;;10.88;2.28;;;16.60;87.80;;;;;;6221142;23;20024;-75
2021/07/27 03:19:59;;;;;;;4.50;2.17;;;16.60;87.80;;;;;;6220141;23;20223;-75
2021/07/27 03:22:26;;;;;;;3.65;2.20;;;16.70;87.60;;;;;;6218349;23;20029;-75
2021/07/27 03:24:53;;;;;;;5.22;2.40;;;16.70;87.40;;;;;;6218146;23;20021;-75
2021/07/27 03:27:20;;;;;;;6.20;3.03;;;16.80;87.40;;;;;;6219929;23;20055;-75
2021/07/27 03:29:47;;;;;;;6.07;2.60;;;16.90;87.20;;;;;;6220218;23;20043;-75
2021/07/27 03:32:15;;;;;;;4.60;2.22;;;16.90;86.90;;;;;;6218287;23;20040;-75
2021/07/27 03:34:44;;;;;;;5.15;1.92;;;17.00;87.00;;;;;;6221712;23;20024;-75
2021/07/27 03:37:12;;;;;;;6.40;2.67;;;17.10;86.90;;;;;;6218114;23;20028;-75
2021/07/27 03:39:39;;;;;;;10.05;3.00;;;17.10;86.70;;;;;;6218030;23;20071;-75
2021/07/27 03:42:07;;;;;;;4.60;2.15;;;17.20;86.30;;;;;;6219542;23;20047;-75
2021/07/27 03:44:34;;;;;;;4.60;2.33;;;17.20;86.10;;;;;;6219085;23;20028;-75
2021/07/27 03:47:08;;;;;;;7.00;2.38;;;17.30;85.80;;;;;;6220944;23;20031;-75
2021/07/27 03:49:35;;;;;;;4.38;1.70;;;17.30;85.70;;;;;;6218878;23;20072;-75
2021/07/27 03:52:05;;;;;;;4.85;2.25;;;17.30;86.00;;;;;;6220377;23;20015;-75
2021/07/27 03:54:34;;;;;;;6.22;1.98;;;17.40;85.70;;;;;;6221521;23;20154;-75
2021/07/27 03:57:02;;;;;;;4.95;1.92;;;17.20;85.40;;;;;;6221794;23;20359;-75
2021/07/27 03:59:31;;;;;;;4.57;2.13;;;17.20;85.50;;;;;;6218539;23;20205;-75
2021/07/27 04:01:58;;;;;;;5.80;2.38;;;17.20;85.30;;;;;;6212246;23;20028;-75
2021/07/27 04:04:26;;;;;;;6.50;2.65;;;17.20;85.60;;;;;;6214397;23;20128;-75
2021/07/27 04:06:54;;;;;;;5.80;2.42;;;17.30;85.60;;;;;;6217104;23;20024;-75
2021/07/27 04:09:23;;;;;;;6.15;2.25;;;17.30;85.20;;;;;;6218799;23;20016;-75
2021/07/27 04:11:50;;;;;;;6.38;2.60;;;17.30;85.20;;;;;;6217673;23;20031;-75
2021/07/27 04:14:17;;;;;;;4.68;2.08;;;17.20;85.20;;;;;;6217052;23;20036;-75
2021/07/27 04:16:44;;;;;;;5.43;2.25;;;17.20;85.20;;;;;;6218683;23;20079;-75
2021/07/27 04:19:12;;;;;;;5.43;2.85;;;17.20;85.40;;;;;;6217720;23;20028;-75
2021/07/27 04:21:39;;;;;;;9.00;2.40;;;17.20;85.50;;;;;;6218016;23;20013;-75
2021/07/27 04:24:07;;;;;;;8.75;2.17;;;17.10;85.60;;;;;;6217604;23;20055;-75
2021/07/27 04:26:35;;;;;;;6.75;2.38;;;17.10;85.80;;;;;;6216946;23;20024;-75
2021/07/27 04:29:05;;;;;;;6.32;2.35;;;17.10;85.70;;;;;;6216267;23;20024;-75
2021/07/27 04:31:32;;;;;;;5.95;1.90;;;17.00;86.00;;;;;;6215697;23;20021;-75
2021/07/27 04:33:59;;;;;;;5.03;2.28;;;17.00;86.20;;;;;;6215433;23;20020;-75
2021/07/27 04:36:26;;;;;;;5.43;2.70;;;17.10;86.20;;;;;;6217053;23;20016;-75
2021/07/27 04:38:54;;;;;;;7.18;2.55;;;17.10;85.90;;;;;;6220612;23;20024;-75
2021/07/27 04:41:21;;;;;;;6.82;2.38;;;17.10;86.10;;;;;;6219413;23;20321;-75
2021/07/27 04:43:50;;;;;;;4.75;2.30;;;17.10;86.60;;;;;;6219501;23;20068;-74
2021/07/27 04:46:17;;;;;;;6.65;2.58;;;17.10;86.50;;;;;;6222324;23;20024;-75
2021/07/27 04:48:44;;;;;;;7.20;2.83;;;17.10;86.80;;;;;;6221087;23;20036;-74
2021/07/27 04:51:11;;;;;;;5.93;2.58;;;17.10;87.00;;;;;;6222769;23;20036;-74
2021/07/27 04:53:40;;;;;;;8.15;2.83;;;17.10;86.80;;;;;;6219547;23;20028;-74
2021/07/27 04:56:08;;;;;;;5.63;3.08;;;17.10;87.00;;;;;;6220675;23;20020;-75
2021/07/27 04:58:35;;;;;;;7.85;3.20;;;17.10;87.00;;;;;;6220181;23;20063;-74
2021/07/27 05:01:04;;;;;;;5.35;2.55;;;17.10;87.30;;;;;;6211955;23;20036;-74
2021/07/27 05:03:33;;;;;;;6.22;2.83;;;17.10;87.10;;;;;;6220719;23;20071;-74
2021/07/27 05:06:04;;;;;;;7.85;2.90;;;17.20;86.80;;;;;;6221750;23;20016;-75
2021/07/27 05:08:37;;;;;;;7.40;2.75;;;17.30;86.70;;;;;;6220959;23;20024;-74
2021/07/27 05:11:04;;;;;;;4.30;2.20;;;17.40;86.50;;;;;;6220496;23;20035;-75
2021/07/27 05:13:32;;;;;;;4.68;2.30;;;17.70;85.90;;;;;;6221275;23;20123;-75
2021/07/27 05:16:00;;;;;;;6.32;2.70;;;17.90;85.40;;;;;;6222298;23;20063;-75
2021/07/27 05:18:35;;;;;;;6.53;2.75;;;18.00;84.30;;;;;;6222025;23;20035;-75
2021/07/27 05:21:03;;;;;;;5.10;2.28;;;18.20;84.20;;;;;;6220610;23;20024;-74
2021/07/27 05:23:32;;;;;;;7.15;3.05;;;18.40;83.30;;;;;;6218368;23;20096;-74
2021/07/27 05:25:59;;;;;;;10.70;2.88;;;18.60;83.40;;;;;;6219076;23;20021;-75
2021/07/27 05:28:26;;;;;;;9.18;3.25;;;18.60;83.40;;;;;;6223661;23;20340;-75
2021/07/27 05:30:53;;;;;;;5.97;3.13;;;18.70;83.10;;;;;;6222982;23;20042;-75
2021/07/27 05:33:20;;;;;;;5.13;2.25;;;18.80;82.90;;;;;;6221042;23;20051;-75
2021/07/27 05:35:49;;;;;;;7.80;3.08;;;18.80;82.80;;;;;;6224449;23;20024;-75
2021/07/27 05:38:16;;;;;;;5.45;2.53;;;18.90;82.70;;;;;;6223278;23;20016;-75
2021/07/27 05:40:45;;;;;;;7.82;2.67;;;18.90;82.40;;;;;;6221496;23;20020;-75
2021/07/27 05:43:12;;;;;;;6.13;3.10;;;19.00;82.20;;;;;;6219598;23;20028;-77
2021/07/27 05:45:39;;;;;;;8.48;3.22;;;19.10;82.10;;;;;;6218966;23;20035;-76
2021/07/27 05:48:06;;;;;;;6.93;2.88;;;19.10;81.80;;;;;;6221033;23;20017;-76
2021/07/27 05:50:33;;;;;;;8.10;2.80;;;19.30;81.60;;;;;;6221547;23;20260;-76
2021/07/27 05:53:02;;;;;;;5.28;2.55;;;19.40;81.30;;;;;;6223191;23;20016;-76
2021/07/27 05:55:29;;;;;;;5.38;2.75;;;19.40;81.10;;;;;;6217906;23;20039;-76
2021/07/27 05:57:56;;;;;;;7.13;3.17;;;19.50;81.00;;;;;;6222346;23;20024;-76
2021/07/27 06:00:23;;;;;;;6.63;2.70;;;19.50;81.00;;;;;;6213889;23;20536;-76
2021/07/27 06:02:51;;;;;;;6.55;2.97;;;19.50;80.80;;;;;;6222246;23;20025;-76
2021/07/27 06:05:18;;;;;;;5.63;2.95;;;19.50;81.30;;;;;;6218764;23;20042;-76
2021/07/27 06:07:45;;;;;;;5.78;2.92;;;19.40;81.50;;;;;;6219293;23;20335;-73
2021/07/27 06:10:15;;;;;;;8.63;2.72;;;19.50;81.80;;;;;;6220056;23;20012;-74
2021/07/27 06:12:42;;;;;;;8.15;2.90;;;19.70;81.40;;;;;;6218470;23;20084;-74
2021/07/27 06:15:10;;;;;;;6.32;3.05;;;19.90;80.40;;;;;;6219057;23;20032;-74
2021/07/27 06:17:38;;;;;;;6.60;2.60;;;19.90;80.30;;;;;;6220117;23;20040;-73
2021/07/27 06:20:06;;;;;;;11.90;3.13;;;19.90;79.80;;;;;;6221102;23;20383;-74
2021/07/27 06:22:34;;;;;;;4.82;2.22;;;20.20;79.50;;;;;;6217989;23;20047;-74
2021/07/27 06:25:03;;;;;;;7.72;2.70;;;20.40;79.10;;;;;;6218892;23;20032;-74
2021/07/27 06:27:31;;;;;;;5.63;2.45;;;20.60;77.80;;;;;;6219898;23;20024;-74
2021/07/27 06:29:59;;;;;;;7.05;2.88;;;20.90;77.00;;;;;;6218991;23;20040;-74
2021/07/27 06:32:26;;;;;;;6.25;3.00;;;20.90;77.10;;;;;;6220032;23;20024;-75
2021/07/27 06:34:53;;;;;;;6.43;2.72;;;20.90;76.10;;;;;;6219930;23;20051;-75
2021/07/27 06:37:20;;;;;;;6.88;2.53;;;20.80;76.30;;;;;;6219243;23;20025;-75
2021/07/27 06:39:47;;;;;;;6.53;2.60;;;20.60;76.70;;;;;;6220499;23;20035;-75
2021/07/27 06:42:14;;;;;;;8.23;3.30;;;20.50;77.00;;;;;;6221523;23;20332;-75
2021/07/27 06:44:43;;;;;;;6.30;2.78;;;20.20;77.20;;;;;;6221543;23;20080;-76
2021/07/27 06:47:10;;;;;;;5.85;2.75;;;20.00;78.50;;;;;;6220940;23;20032;-76
2021/07/27 06:49:38;;;;;;;5.68;3.05;;;20.20;78.00;;;;;;6218861;23;20036;-75
2021/07/27 06:52:05;;;;;;;6.68;3.42;;;20.40;77.90;;;;;;6220768;23;20408;-76
2021/07/27 06:54:33;;;;;;;5.57;2.92;;;20.60;77.10;;;;;;6218474;23;20008;-75
2021/07/27 06:57:00;;;;;;;7.75;2.88;;;20.70;76.10;;;;;;6219492;23;20040;-75
2021/07/27 06:59:28;;;;;;;5.55;3.17;;;20.80;76.50;;;;;;6220314;23;20028;-75
2021/07/27 07:01:57;;;;;;;5.75;3.10;;;21.10;75.70;;;;;;6216418;23;20027;-75
2021/07/27 07:04:24;;;;;;;6.13;3.20;;;21.10;74.40;;;;;;6219694;23;20009;-75
2021/07/27 07:06:51;;;;;;;5.50;2.97;;;21.40;74.30;;;;;;6220201;23;20051;-75
2021/07/27 07:09:18;;;;;;;6.45;3.45;;;21.30;72.80;;;;;;6221549;23;20009;-76
2021/07/27 07:11:45;;;;;;;7.07;3.53;;;21.30;73.50;;;;;;6222551;23;20012;-76
2021/07/27 07:14:12;;;;;;;6.82;3.25;;;21.40;73.80;;;;;;6220197;23;20051;-76
2021/07/27 07:16:40;;;;;;;6.45;2.88;;;21.80;72.70;;;;;;6219999;23;20031;-75
2021/07/27 07:19:08;;;;;;;6.43;3.40;;;21.80;71.70;;;;;;6217223;23;20248;-76
2021/07/27 07:21:36;;;;;;;5.18;3.08;;;21.70;71.90;;;;;;6211896;23;20025;-76
2021/07/27 07:24:03;;;;;;;6.53;2.92;;;22.10;70.70;;;;;;6217683;23;20023;-76
2021/07/27 07:26:30;;;;;;;7.07;3.25;;;22.20;70.70;;;;;;6218281;23;20267;-76
2021/07/27 07:28:57;;;;;;;7.10;3.45;;;22.30;70.90;;;;;;6217628;23;20016;-75
2021/07/27 07:31:24;;;;;;;8.85;3.20;;;22.20;69.80;;;;;;6217294;23;20067;-76
2021/07/27 07:33:52;;;;;;;5.43;2.70;;;22.00;70.50;;;;;;6214485;23;20240;-75
2021/07/27 07:36:21;;;;;;;7.75;3.30;;;22.10;70.50;;;;;;6216864;23;20232;-75
2021/07/27 07:38:48;;;;;;;5.35;2.60;;;22.10;70.00;;;;;;6217830;23;20017;-76
2021/07/27 07:41:15;;;;;;;5.30;2.63;;;22.10;69.90;;;;;;6218150;23;20040;-76
2021/07/27 07:43:42;;;;;;;9.32;3.17;;;22.10;70.10;;;;;;6215450;23;20027;-76
2021/07/27 07:46:10;;;;;;;6.60;3.03;;;22.50;68.70;;;;;;6217623;23;20017;-75
2021/07/27 07:48:37;;;;;;;6.28;3.40;;;22.40;68.80;;;;;;6215193;23;20021;-75
2021/07/27 07:51:04;;;;;;;6.05;2.90;;;22.20;69.30;;;;;;6217010;23;20020;-75
2021/07/27 07:53:33;;;;;;;5.68;2.90;;;22.10;69.70;;;;;;6215238;23;20039;-75
2021/07/27 07:56:00;;;;;;;5.65;2.78;;;22.20;69.50;;;;;;6217061;23;20089;-75
2021/07/27 07:58:28;;;;;;;5.28;2.92;;;22.10;69.60;;;;;;6221864;23;20311;-76
2021/07/27 08:00:55;;;;;;;5.45;2.88;;;22.20;69.10;;;;;;6213079;23;20025;-76
2021/07/27 08:03:23;;;;;;;5.97;2.90;;;22.20;69.20;;;;;;6219188;23;20354;-76
2021/07/27 08:05:50;;;;;;;7.15;3.10;;;22.10;69.90;;;;;;6221835;23;20024;-76
2021/07/27 08:08:19;;;;;;;5.63;2.67;;;22.20;69.70;;;;;;6220100;23;20079;-76
2021/07/27 08:10:47;;;;;;;7.10;3.30;;;22.50;68.00;;;;;;6220284;23;20029;-76
2021/07/27 08:13:15;;;;;;;5.35;3.10;;;22.90;68.10;;;;;;6220168;23;20016;-75
2021/07/27 08:15:42;;;;;;;8.05;3.13;;;22.80;67.20;;;;;;6217839;23;20032;-76
2021/07/27 08:18:09;;;;;;;5.63;2.90;;;22.90;67.20;;;;;;6221469;23;20024;-76
2021/07/27 08:20:36;;;;;;;7.43;3.25;;;22.80;67.50;;;;;;6223413;23;20309;-76
2021/07/27 08:23:04;;;;;;;7.20;3.03;;;22.60;67.10;;;;;;6222978;23;20024;-76
2021/07/27 08:25:32;;;;;;;5.60;2.67;;;22.40;68.50;;;;;;6222873;23;20009;-76
2021/07/27 08:28:00;;;;;;;6.35;3.22;;;22.60;68.30;;;;;;6223390;23;20209;-76
2021/07/27 08:30:28;;;;;;;5.82;2.83;;;22.60;68.30;;;;;;6222476;23;20016;-76
2021/07/27 08:32:55;;;;;;;7.65;3.30;;;22.40;68.80;;;;;;6223401;23;20047;-76
2021/07/27 08:35:23;;;;;;;9.63;3.50;;;22.40;69.00;;;;;;6221488;23;20503;-77
2021/07/27 08:37:51;;;;;;;5.60;3.03;;;22.30;69.10;;;;;;6223363;23;20031;-76
2021/07/27 08:40:19;;;;;;;6.28;2.50;;;22.50;68.40;;;;;;6223965;23;20023;-76
2021/07/27 08:42:47;;;;;;;5.15;3.00;;;22.60;68.20;;;;;;6222615;23;20358;-77
2021/07/27 08:45:16;;;;;;;5.00;2.40;;;22.80;67.50;;;;;;6223502;23;20008;-77
2021/07/27 08:47:47;;;;;;;6.07;2.78;;;22.90;67.40;;;;;;6222952;23;20016;-77
2021/07/27 08:50:16;;;;;;;5.25;2.55;;;23.20;66.40;;;;;;6223963;23;20025;-76
2021/07/27 08:52:43;;;;;;;5.88;2.65;;;23.40;66.10;;;;;;6221444;23;20258;-77
2021/07/27 08:55:12;;;;;;;6.65;2.80;;;23.50;65.90;;;;;;6221763;23;20020;-77
2021/07/27 08:57:47;;;;;;;5.80;2.75;;;23.50;65.70;;;;;;6223585;23;20043;-76
2021/07/27 09:00:16;;;;;;;6.85;2.83;;;23.40;64.80;;;;;;6216510;23;20076;-77
2021/07/27 09:02:43;;;;;;;6.03;2.87;;;23.40;65.90;;;;;;6221812;23;20005;-76
2021/07/27 09:05:12;;;;;;;5.53;2.60;;;23.50;64.30;;;;;;6221668;23;20040;-76
2021/07/27 09:07:39;;;;;;;6.28;2.90;;;23.60;63.30;;;;;;6221615;23;20059;-76
2021/07/27 09:10:17;;;;;;;6.63;2.53;;;23.70;64.50;;;;;;6218274;23;20343;-76
2021/07/27 09:12:55;;;;;;;5.78;3.25;;;23.80;63.90;;;;;;6220214;23;20024;-77
2021/07/27 09:15:26;;;;;;;6.50;2.90;;;23.60;64.10;;;;;;6220069;23;20032;-76
2021/07/27 09:17:57;;;;;;;5.95;2.88;;;23.60;64.80;;;;;;6220833;23;20087;-77
2021/07/27 09:20:29;;;;;;;4.95;2.50;;;23.70;65.00;;;;;;6220520;23;20047;-77
2021/07/27 09:22:57;;;;;;;8.68;4.35;;;23.80;64.00;;;;;;6218729;23;20028;-76
2021/07/27 09:25:27;;;;;;;5.70;2.42;;;23.80;64.00;;;;;;6219261;23;20021;-76
2021/07/27 09:28:04;;;;;;;8.25;2.67;;;24.10;62.80;;;;;;6220486;23;20047;-76
2021/07/27 09:30:33;;;;;;;7.45;2.60;;;24.50;61.50;;;;;;6219975;23;20228;-76
2021/07/27 09:33:01;;;;;;;6.32;3.00;;;24.70;60.90;;;;;;6220852;23;20082;-76
2021/07/27 09:35:30;;;;;;;4.88;2.80;;;24.70;61.10;;;;;;6222539;23;20027;-76
2021/07/27 09:38:05;;;;;;;9.13;3.10;;;24.60;61.00;;;;;;6224151;23;20418;-76
2021/07/27 09:40:35;;;;;;;5.90;2.72;;;24.70;61.00;;;;;;6224089;23;20023;-76
2021/07/27 09:43:03;;;;;;;5.63;2.78;;;24.80;61.10;;;;;;6224637;23;20068;-76
2021/07/27 09:45:32;;;;;;;5.47;2.67;;;25.10;58.90;;;;;;6222055;23;20031;-76
2021/07/27 09:48:00;;;;;;;6.45;3.03;;;25.10;59.00;;;;;;6223754;23;20044;-76
2021/07/27 09:50:34;;;;;;;6.93;3.00;;;25.10;56.40;;;;;;6223359;23;20025;-76
2021/07/27 09:53:02;;;;;;;8.25;2.80;;;25.20;57.50;;;;;;6225356;23;20059;-77
2021/07/27 09:55:31;;;;;;;5.40;2.88;;;25.00;57.50;;;;;;6223315;23;20036;-76
2021/07/27 09:58:01;;;;;;;5.90;2.85;;;25.40;56.50;;;;;;6224548;23;20239;-77
2021/07/27 10:00:35;;;;;;;7.05;3.13;;;25.10;57.10;;;;;;6217984;23;20292;-76
2021/07/27 10:03:05;;;;;;;5.38;3.03;;;25.50;55.80;;;;;;6224621;23;20013;-78
2021/07/27 10:05:33;;;;;;;5.57;2.95;;;25.80;55.50;;;;;;6225417;23;20209;-77
2021/07/27 10:08:01;;;;;;;5.22;2.95;;;25.90;54.10;;;;;;6223659;23;20035;-77
2021/07/27 10:10:39;;;;;;;7.55;3.88;;;26.20;52.40;;;;;;6223551;23;20020;-77
2021/07/27 10:13:12;;;;;;;6.22;3.33;;;26.50;52.10;;;;;;6225312;23;20021;-77
2021/07/27 10:15:42;;;;;;;5.43;3.35;;;27.10;49.70;;;;;;6224001;23;20083;-77
2021/07/27 10:18:09;;;;;;;9.27;3.22;;;27.70;49.50;;;;;;6222795;23;20027;-76
2021/07/27 10:20:37;;;;;;;9.32;3.60;;;28.30;49.20;;;;;;6224278;23;20032;-76
2021/07/27 10:23:18;;;;;;;6.13;3.30;;;27.80;47.50;;;;;;6224668;23;20047;-76
2021/07/27 10:25:58;;;;;;;7.78;3.30;;;28.80;46.20;;;;;;6224269;23;20028;-76
2021/07/27 10:28:27;;;;;;;5.82;3.00;;;29.00;44.20;;;;;;6224209;23;20028;-76
2021/07/27 10:31:07;;;;;;;8.53;3.23;;;29.40;43.00;;;;;;6224484;23;20015;-76
2021/07/27 10:33:40;;;;;;;6.60;3.15;;;29.60;43.30;;;;;;6220597;23;20047;-75
2021/07/27 10:36:07;;;;;;;6.80;3.25;;;29.70;42.90;;;;;;6222910;23;20024;-77
2021/07/27 10:38:39;;;;;;;6.07;3.40;;;30.30;42.10;;;;;;6222527;23;20029;-76
2021/07/27 10:41:17;;;;;;;7.80;2.75;;;30.60;41.90;;;;;;6219726;23;20020;-77
2021/07/27 10:43:45;;;;;;;6.45;3.58;;;30.70;42.60;;;;;;6220280;23;20017;-76
2021/07/27 10:46:13;;;;;;;5.75;3.20;;;29.00;44.50;;;;;;6219873;23;20015;-76
2021/07/27 10:48:41;;;;;;;8.27;2.90;;;28.90;45.40;;;;;;6220241;23;20320;-76
2021/07/27 10:51:10;;;;;;;6.70;3.38;;;29.70;43.30;;;;;;6220546;23;20024;-76
2021/07/27 10:53:37;;;;;;;5.90;3.53;;;28.80;44.90;;;;;;6219209;23;20039;-76
2021/07/27 10:56:07;;;;;;;5.20;2.88;;;28.80;45.40;;;;;;6220517;23;20275;-76
2021/07/27 10:58:36;;;;;;;5.38;3.22;;;28.30;45.40;;;;;;6220922;23;20048;-76
2021/07/27 11:01:10;;;;;;;7.03;3.70;;;28.10;47.00;;;;;;6217085;23;20013;-76
2021/07/27 11:03:41;;;;;;;5.60;3.30;;;28.00;46.30;;;;;;6221703;23;20028;-76
2021/07/27 11:06:08;;;;;;;6.32;3.58;;;27.40;47.30;;;;;;6219840;23;20029;-76
2021/07/27 11:08:36;;;;;;;6.78;3.72;;;27.90;46.60;;;;;;6220596;23;20024;-75
2021/07/27 11:11:05;;;;;;;5.88;3.47;;;27.50;46.80;;;;;;6221970;23;20032;-76
2021/07/27 11:13:32;;;;;;;6.07;3.08;;;26.90;48.70;;;;;;6220159;23;20258;-75
2021/07/27 11:16:01;;;;;;;5.88;3.47;;;26.80;49.90;;;;;;6219994;23;20279;-76
2021/07/27 11:18:32;;;;;;;8.07;3.72;;;26.70;50.30;;;;;;6219870;23;20171;-75
2021/07/27 11:21:01;;;;;;;7.80;3.95;;;26.50;51.20;;;;;;6223445;23;20040;-75
2021/07/27 11:23:34;;;;;;;5.90;3.30;;;26.20;50.40;;;;;;6221534;23;20224;-75
2021/07/27 11:26:02;;;;;;;6.13;3.30;;;25.80;51.50;;;;;;6223166;23;20016;-74
2021/07/27 11:28:34;;;;;;;7.93;4.10;;;25.80;52.30;;;;;;6221782;23;20088;-74
2021/07/27 11:31:02;;;;;;;7.45;3.22;;;25.60;52.60;;;;;;6221572;23;20335;-75
2021/07/27 11:33:29;;;;;;;6.70;3.28;;;25.50;54.00;;;;;;6222387;23;20051;-75
2021/07/27 11:35:58;;;;;;;6.85;3.42;;;25.70;54.30;;;;;;6223081;23;20024;-77
2021/07/27 11:38:28;;;;;;;6.97;3.65;;;25.70;53.90;;;;;;6223019;23;20017;-75
2021/07/27 11:41:06;;;;;;;6.13;3.03;;;25.70;53.70;;;;;;6223051;23;20047;-76
2021/07/27 11:43:34;;;;;;;8.43;3.50;;;25.70;53.50;;;;;;6222709;23;20320;-76
2021/07/27 11:46:09;;;;;;;7.18;3.67;;;25.80;53.10;;;;;;6223606;23;20008;-75
2021/07/27 11:48:37;;;;;;;7.30;3.42;;;25.70;53.90;;;;;;6222746;23;20217;-75
2021/07/27 11:51:04;;;;;;;5.97;3.72;;;26.00;54.10;;;;;;6223648;23;20245;-75
2021/07/27 11:53:36;;;;;;;8.90;3.28;;;26.50;52.60;;;;;;6221428;23;20039;-73
2021/07/27 11:56:11;;;;;;;6.78;3.90;;;27.20;50.90;;;;;;6223212;23;20292;-75
2021/07/27 11:58:39;;;;;;;7.63;3.95;;;27.30;50.30;;;;;;6222942;23;20024;-75
2021/07/27 12:01:06;;;;;;;8.70;3.75;;;27.10;50.70;;;;;;6218114;23;20016;-75
2021/07/27 12:03:33;;;;;;;6.28;3.55;;;27.00;50.60;;;;;;6222742;23;20216;-75
2021/07/27 12:06:11;;;;;;;6.07;3.88;;;27.20;51.60;;;;;;6221499;23;20127;-76
2021/07/27 12:08:40;;;;;;;7.95;3.42;;;27.10;50.30;;;;;;6221454;23;20043;-76
2021/07/27 12:11:07;;;;;;;;;;;27.40;48.20;;;;;;6216539;23;20407;-75
2021/07/27 12:13:34;;;;;;;9.38;3.63;;;27.60;48.60;;;;;;6217204;23;19922;-76
2021/07/27 12:16:02;;;;;;;7.70;3.22;;;27.30;49.80;;;;;;6220276;23;20017;-74
2021/07/27 12:18:35;;;;;;;7.03;3.60;;;27.00;50.30;;;;;;6219650;23;20016;-74
2021/07/27 12:21:02;;;;;;;6.50;3.55;;;27.40;49.90;;;;;;6210445;23;20396;-75
2021/07/27 12:23:33;;;;;;;8.90;3.35;;;27.60;47.40;;;;;;6215507;23;20095;-76
2021/07/27 12:26:04;;;;;;;6.38;3.65;;;27.80;47.50;;;;;;6214436;23;20256;-76
2021/07/27 12:28:32;;;;;;;9.38;3.92;;;28.10;46.30;;;;;;6216265;23;20033;-75
2021/07/27 12:30:59;;;;;;;6.68;3.75;;;28.10;47.10;;;;;;6217862;23;20377;-76
2021/07/27 12:33:29;;;;;;;5.95;3.42;;;29.00;45.10;;;;;;6217473;23;20305;-76
2021/07/27 12:35:58;;;;;;;5.82;3.00;;;29.10;45.20;;;;;;6220400;23;20108;-76
2021/07/27 12:38:26;;;;;;;8.43;4.22;;;29.40;44.40;;;;;;6217700;23;20024;-76
2021/07/27 12:40:56;;;;;;;7.45;3.65;;;29.60;42.90;;;;;;6216899;23;20020;-76
2021/07/27 12:43:25;;;;;;;5.63;3.00;;;30.40;41.70;;;;;;6216887;23;20362;-76
2021/07/27 12:45:53;;;;;;;;;;;31.00;41.30;;;;;;6212502;23;20047;-75
2021/07/27 12:48:20;;;;;;;5.53;3.72;;;31.00;41.30;;;;;;6241741;23;19998;-76
2021/07/27 12:50:47;;;;;;;5.65;3.38;;;31.70;38.90;;;;;;6218908;23;20016;-76
2021/07/27 12:53:14;;;;;;;6.35;2.97;;;32.10;38.80;;;;;;6217408;23;20033;-76
2021/07/27 12:55:41;;;;;;;8.30;4.18;;;31.50;38.60;;;;;;6218128;23;20063;-75
2021/07/27 12:58:08;;;;;;;7.88;3.08;;;30.60;39.80;;;;;;6219173;23;20046;-75
2021/07/27 13:00:37;;;;;;;6.40;3.17;;;30.30;40.90;;;;;;6204127;23;20555;-75
2021/07/27 13:03:04;;;;;;;7.38;3.67;;;30.40;40.40;;;;;;6217559;23;20372;-76
2021/07/27 13:05:33;;;;;;;7.68;3.40;;;30.90;39.40;;;;;;6220083;23;20036;-75
2021/07/27 13:08:01;;;;;;;5.38;3.20;;;31.30;38.30;;;;;;6221649;23;20040;-75
2021/07/27 13:10:32;;;;;;;6.55;3.25;;;31.30;38.20;;;;;;6222768;23;20123;-75
2021/07/27 13:12:59;;;;;;;5.70;3.50;;;32.00;38.40;;;;;;6221715;23;20323;-75